AirNav   $300 off a Bose A20 aviation headset
 
 317 users online  

S88 Skykomish State Airport
Skykomish, Washington, USA

GOING TO SKYKOMISH?


FAA INFORMATION EFFECTIVE 28 FEBRUARY 2019

Location

FAA Identifier: S88
Lat/Long: 47-42-39.3680N / 121-20-20.6030W
47-42.656133N / 121-20.343383W
47.7109356 / -121.3390564
(estimated)
Elevation: 1002 ft. / 305 m (estimated)
Variation: 20E (1985)
From city: 1 mile E of SKYKOMISH, WA
Time zone: UTC -8 (UTC -7 during Daylight Saving Time)
Zip code: 98288

Airport Operations

Airport use: Open to the public
Activation date: 10/1949
Control tower: no
ARTCC: SEATTLE CENTER
FSS: SEATTLE FLIGHT SERVICE STATION
NOTAMs facility: SEA (NOTAM-D service available)
Attendance: UNATNDD
Wind indicator: yes
Segmented circle: no

Airport Communications

CTAF: 122.9

Nearby radio navigation aids

VOR radial/distance  VOR name  Freq  Var
PAEr088/39.8PAINE VOR/DME110.6020E

Airport Services

Parking: tiedowns
Airframe service: NONE
Powerplant service: NONE
Bottled oxygen: NONE
Bulk oxygen: NONE

Runway Information

Runway 6/24

Dimensions: 2050 x 100 ft. / 625 x 30 m
Surface: turf, in good condition
RY SOFT WHEN WET.
RUNWAY 6  RUNWAY 24
Traffic pattern: leftleft
Obstructions: 90 ft. trees, 125 ft. left of centerline70 ft. trees, 125 ft. right of centerline

Airport Ownership and Management from official FAA records

Ownership: Publicly-owned
Owner: WSDOT AVIATION DIVISION
7702 TERMINAL STREET SW
TUMWATER, WA 98501-7264
Phone (800) 552-0666
800 NUMBER FOR WA STATE CALLS ONLY.
Manager: G. PAUL WOLF
7702 TERMINAL STREET SW
TUMWATER, WA 98501-7264
Phone (360) 618-2477

Airport Operational Statistics

Aircraft operations: avg 25/month *
100% transient general aviation
* for 12-month period ending 31 December 2015

Additional Remarks

MTNS SURROUND ARPT.
ARPT CLSD 1 OCT-1 JUN EXC FOR APPROVED MIL & PUBLIC/LAW ENFORCEMENT HELI OPS.
CTC WA STATE AVIATION DIVISION 360-709-8015 OR 1-800-552-0666 WA AREA FOR FACILITY INFO PRIOR TO USE.
TREES AND DITCHES IN PRIMARY SFC BOTH SIDES OF RWY.
VEHICLES, PEDESTRIANS, AND ANIMALS ON & INVOF RY.
RY MARKED WITH REFLECTORS DURING DATES ARPT IS OPEN.
FOR ACFT ACCIDENTS/INCIDENTS CTC WA STATE EMERGENCY OPERATIONS CENTER 800-258-5990.

Instrument Procedures

There are no published instrument procedures at S88.

Some nearby airports with instrument procedures:

S43 - Harvey Field Airport (33 nm W)
KRNT - Renton Municipal Airport (38 nm W)
KPAE - Snohomish County Airport (Paine Field) (40 nm W)
KBFI - Boeing Field/King County International Airport (40 nm W)
KSEA - Seattle-Tacoma International Airport (42 nm W)
 
Loc | Ops | Rwys | IFR | FBO | Links
Com | Nav | Svcs | Stats | Notes
Area around S88 (Skykomish State Airport)
 
Road maps at: MapQuest Bing Google
 
Aerial photo
WARNING: Photo may not be current or correct
Aerial photo of S88 (Skykomish State Airport)
Photo by S. Paulay
Photo taken 21-Jul-2007

Do you have a better or more recent aerial photo of Skykomish State Airport that you would like to share? If so, please send us your photo.

 
Sectional chart

 
Airport distance calculator
Flying to Skykomish State Airport? Find the distance to fly.

From to S88

Sunrise and sunset
Times for 23-Mar-2019
 Local
(UTC-7)
 Zulu
(UTC)
Morning civil twilight06:3213:32
Sunrise07:0314:03
Sunset19:2102:21
Evening civil twilight19:5202:52

Current date and time
Zulu (UTC)  24-Mar-2019 06:24:36
Local (UTC-7)  23-Mar-2019 23:24:36
 
METAR
KSMP 
26nm S 
240530Z AUTO 26003KT 3/4SM BR VV002 02/01 A3013 RMK AO2 T00220006
KRNT 
38nm W 
240553Z AUTO 31007KT 10SM CLR 11/04 A3020 RMK AO2 SLP231 T01110039 10156 20106 51009
KPAE 
40nm W 
240553Z AUTO 34004KT 10SM CLR 08/05 A3021 RMK AO2 SLP231 T00780050 10139 20078 51007
KBFI 
41nm W 
240553Z 00000KT 10SM CLR 11/04 A3020 RMK AO2 SLP228 T01060039 10156 20106 51010
KSEA 
43nm W 
240553Z 32003KT 10SM FEW070 SCT200 09/04 A3020 RMK AO2 SLP234 T00890044 10150 20089 50008
KAWO 
43nm NW 
240556Z AUTO 00000KT 10SM CLR 08/05 A3021 RMK AO2 SLP236 T00780050 10150 20067 51009
KEAT 
50nm E 
240555Z AUTO 33009KT 10SM BKN120 11/01 A3008 RMK AO2 SLP188 T01060006 10156 20100 50008
TAF
KPAE 
40nm W 
240532Z 2406/2506 34005KT P6SM SCT040 SCT070 FM241400 22004KT P6SM BKN030 BKN040 FM242100 23004KT P6SM SCT040 BKN150 FM242300 21007KT P6SM SCT250 FM250300 05004KT P6SM SCT250
KBFI 
41nm W 
240532Z 2406/2506 VRB03KT P6SM FEW050 SCT070 FM240900 17005KT P6SM FEW030 BKN100 FM241200 20004KT P6SM BKN030 BKN120 FM241800 20005KT P6SM BKN030 FM242100 25004KT P6SM SCT040 SCT200 FM250300 13003KT P6SM SCT250
KSEA 
43nm W 
240532Z 2406/2512 35005KT P6SM FEW040 SCT070 FM240900 22005KT P6SM FEW030 BKN100 FM241200 20004KT P6SM BKN030 BKN100 FM241800 22005KT P6SM BKN030 FM242000 25004KT P6SM SCT030 SCT200 FM250300 05004KT P6SM SCT250
KEAT 
50nm E 
240520Z 2406/2506 29005KT P6SM OVC110 FM240900 29005KT P6SM -RA OVC060 FM241100 30005KT P6SM -RA OVC050 FM242000 VRB04KT P6SM VCSH BKN070 OVC120 FM250000 VRB04KT P6SM BKN060
NOTAMs
Click for the latest NOTAMs
NOTAMs are issued by the DoD/FAA and will open in a separate window not controlled by AirNav.

 

 
 

Would you like to see your business listed on this page?

 If your business provides an interesting product or service to pilots, flight crews, aircraft, or users of the Skykomish State Airport, you should consider listing it here.  To start the listing process, click on the button below
 
Add a business
 

Other Pages about Skykomish State Airport

www.wsdot.wa.gov/...
WSDOT airport web camera
 
Update a link
 
Copyright © AirNav, LLC. All rights reserved. Privacy Policy  Contact